sensor_id;sensor_type;location;lat;lon;timestamp;P1;durP1;ratioP1;P2;durP2;ratioP2
39218;SDS011;24934;52.752;6.964;2023-12-20T00:00:48;30.63;;;14.07;;
39218;SDS011;24934;52.752;6.964;2023-12-20T00:03:13;20.73;;;13.93;;
39218;SDS011;24934;52.752;6.964;2023-12-20T00:05:39;24.60;;;14.37;;
39218;SDS011;24934;52.752;6.964;2023-12-20T00:08:06;28.10;;;14.73;;
39218;SDS011;24934;52.752;6.964;2023-12-20T00:10:32;27.87;;;15.10;;
39218;SDS011;24934;52.752;6.964;2023-12-20T00:12:57;29.73;;;14.73;;
39218;SDS011;24934;52.752;6.964;2023-12-20T00:15:23;27.43;;;14.87;;
39218;SDS011;24934;52.752;6.964;2023-12-20T00:17:48;25.80;;;14.20;;
39218;SDS011;24934;52.752;6.964;2023-12-20T00:20:14;34.67;;;15.40;;
39218;SDS011;24934;52.752;6.964;2023-12-20T00:22:40;28.50;;;14.60;;
39218;SDS011;24934;52.752;6.964;2023-12-20T00:25:05;26.03;;;14.50;;
39218;SDS011;24934;52.752;6.964;2023-12-20T00:27:31;26.30;;;15.40;;
39218;SDS011;24934;52.752;6.964;2023-12-20T00:29:57;28.20;;;15.07;;
39218;SDS011;24934;52.752;6.964;2023-12-20T00:32:23;27.43;;;15.10;;
39218;SDS011;24934;52.752;6.964;2023-12-20T00:34:51;28.20;;;15.00;;
39218;SDS011;24934;52.752;6.964;2023-12-20T00:37:17;36.73;;;14.90;;
39218;SDS011;24934;52.752;6.964;2023-12-20T00:39:45;26.93;;;15.13;;
39218;SDS011;24934;52.752;6.964;2023-12-20T00:42:11;34.37;;;15.67;;
39218;SDS011;24934;52.752;6.964;2023-12-20T00:44:36;31.57;;;15.00;;
39218;SDS011;24934;52.752;6.964;2023-12-20T00:47:02;32.47;;;15.60;;
39218;SDS011;24934;52.752;6.964;2023-12-20T00:49:28;26.63;;;14.93;;
39218;SDS011;24934;52.752;6.964;2023-12-20T00:51:54;29.90;;;14.87;;
39218;SDS011;24934;52.752;6.964;2023-12-20T00:54:19;32.77;;;15.33;;
39218;SDS011;24934;52.752;6.964;2023-12-20T00:56:45;32.90;;;15.07;;
39218;SDS011;24934;52.752;6.964;2023-12-20T00:59:11;31.27;;;14.73;;
39218;SDS011;24934;52.752;6.964;2023-12-20T01:01:36;47.87;;;15.47;;
39218;SDS011;24934;52.752;6.964;2023-12-20T01:04:02;27.80;;;14.30;;
39218;SDS011;24934;52.752;6.964;2023-12-20T01:06:28;31.37;;;14.80;;
39218;SDS011;24934;52.752;6.964;2023-12-20T01:08:54;33.93;;;14.93;;
39218;SDS011;24934;52.752;6.964;2023-12-20T01:11:20;36.10;;;15.23;;
39218;SDS011;24934;52.752;6.964;2023-12-20T01:13:45;32.57;;;14.77;;
39218;SDS011;24934;52.752;6.964;2023-12-20T01:16:11;31.87;;;15.60;;
39218;SDS011;24934;52.752;6.964;2023-12-20T01:18:37;28.17;;;15.93;;
39218;SDS011;24934;52.752;6.964;2023-12-20T01:21:06;29.13;;;15.33;;
39218;SDS011;24934;52.752;6.964;2023-12-20T01:23:32;46.93;;;15.57;;
39218;SDS011;24934;52.752;6.964;2023-12-20T01:25:58;38.63;;;15.40;;
39218;SDS011;24934;52.752;6.964;2023-12-20T01:28:24;29.27;;;15.60;;
39218;SDS011;24934;52.752;6.964;2023-12-20T01:30:51;30.73;;;16.20;;
39218;SDS011;24934;52.752;6.964;2023-12-20T01:33:17;32.97;;;16.13;;
39218;SDS011;24934;52.752;6.964;2023-12-20T01:35:43;33.50;;;16.03;;
39218;SDS011;24934;52.752;6.964;2023-12-20T01:38:09;37.53;;;16.63;;
39218;SDS011;24934;52.752;6.964;2023-12-20T01:40:34;42.77;;;16.73;;
39218;SDS011;24934;52.752;6.964;2023-12-20T01:43:00;34.53;;;16.60;;
39218;SDS011;24934;52.752;6.964;2023-12-20T01:45:37;33.00;;;15.77;;
39218;SDS011;24934;52.752;6.964;2023-12-20T01:48:03;34.20;;;16.00;;
39218;SDS011;24934;52.752;6.964;2023-12-20T01:50:30;31.67;;;16.17;;
39218;SDS011;24934;52.752;6.964;2023-12-20T01:52:57;32.60;;;15.90;;
39218;SDS011;24934;52.752;6.964;2023-12-20T01:55:26;39.97;;;16.90;;
39218;SDS011;24934;52.752;6.964;2023-12-20T01:57:54;36.53;;;16.47;;
39218;SDS011;24934;52.752;6.964;2023-12-20T02:00:21;32.17;;;15.67;;
39218;SDS011;24934;52.752;6.964;2023-12-20T02:02:52;35.17;;;15.80;;
39218;SDS011;24934;52.752;6.964;2023-12-20T02:05:18;32.57;;;15.53;;
39218;SDS011;24934;52.752;6.964;2023-12-20T02:07:47;39.40;;;15.87;;
39218;SDS011;24934;52.752;6.964;2023-12-20T02:10:13;31.70;;;15.03;;
39218;SDS011;24934;52.752;6.964;2023-12-20T02:12:40;35.33;;;15.60;;
39218;SDS011;24934;52.752;6.964;2023-12-20T02:15:06;33.80;;;15.70;;
39218;SDS011;24934;52.752;6.964;2023-12-20T02:17:32;36.93;;;15.97;;
39218;SDS011;24934;52.752;6.964;2023-12-20T02:19:58;33.07;;;16.13;;
39218;SDS011;24934;52.752;6.964;2023-12-20T02:22:24;39.10;;;16.30;;
39218;SDS011;24934;52.752;6.964;2023-12-20T02:24:50;35.70;;;15.47;;
39218;SDS011;24934;52.752;6.964;2023-12-20T02:27:16;36.90;;;15.97;;
39218;SDS011;24934;52.752;6.964;2023-12-20T02:29:44;44.10;;;16.10;;
39218;SDS011;24934;52.752;6.964;2023-12-20T02:32:12;38.13;;;16.43;;
39218;SDS011;24934;52.752;6.964;2023-12-20T02:34:37;41.67;;;17.10;;
39218;SDS011;24934;52.752;6.964;2023-12-20T02:37:03;44.40;;;16.73;;
39218;SDS011;24934;52.752;6.964;2023-12-20T02:39:30;48.90;;;17.27;;
39218;SDS011;24934;52.752;6.964;2023-12-20T02:41:55;39.07;;;16.40;;
39218;SDS011;24934;52.752;6.964;2023-12-20T02:44:21;46.70;;;17.27;;
39218;SDS011;24934;52.752;6.964;2023-12-20T02:46:47;40.43;;;16.97;;
39218;SDS011;24934;52.752;6.964;2023-12-20T02:49:12;44.10;;;16.40;;
39218;SDS011;24934;52.752;6.964;2023-12-20T02:51:38;39.17;;;16.43;;
39218;SDS011;24934;52.752;6.964;2023-12-20T02:54:04;43.07;;;16.40;;
39218;SDS011;24934;52.752;6.964;2023-12-20T02:56:30;38.53;;;16.00;;
39218;SDS011;24934;52.752;6.964;2023-12-20T02:58:57;40.57;;;16.40;;
39218;SDS011;24934;52.752;6.964;2023-12-20T03:01:22;47.27;;;16.97;;
39218;SDS011;24934;52.752;6.964;2023-12-20T03:03:48;44.30;;;17.87;;
39218;SDS011;24934;52.752;6.964;2023-12-20T03:06:17;43.13;;;16.80;;
39218;SDS011;24934;52.752;6.964;2023-12-20T03:08:44;38.53;;;17.27;;
39218;SDS011;24934;52.752;6.964;2023-12-20T03:11:10;42.27;;;17.57;;
39218;SDS011;24934;52.752;6.964;2023-12-20T03:13:38;41.27;;;16.17;;
39218;SDS011;24934;52.752;6.964;2023-12-20T03:16:13;37.53;;;15.77;;
39218;SDS011;24934;52.752;6.964;2023-12-20T03:18:41;32.47;;;15.60;;
39218;SDS011;24934;52.752;6.964;2023-12-20T03:21:06;38.83;;;15.80;;
39218;SDS011;24934;52.752;6.964;2023-12-20T03:23:32;33.87;;;15.83;;
39218;SDS011;24934;52.752;6.964;2023-12-20T03:25:58;35.90;;;15.80;;
39218;SDS011;24934;52.752;6.964;2023-12-20T03:28:25;34.77;;;15.70;;
39218;SDS011;24934;52.752;6.964;2023-12-20T03:30:51;44.17;;;16.10;;
39218;SDS011;24934;52.752;6.964;2023-12-20T03:33:17;37.80;;;15.87;;
39218;SDS011;24934;52.752;6.964;2023-12-20T03:35:43;39.10;;;16.37;;
39218;SDS011;24934;52.752;6.964;2023-12-20T03:38:08;37.00;;;16.30;;
39218;SDS011;24934;52.752;6.964;2023-12-20T03:40:34;43.10;;;16.50;;
39218;SDS011;24934;52.752;6.964;2023-12-20T03:43:00;46.90;;;17.27;;
39218;SDS011;24934;52.752;6.964;2023-12-20T03:45:26;44.83;;;16.43;;
39218;SDS011;24934;52.752;6.964;2023-12-20T03:47:51;46.93;;;16.17;;
39218;SDS011;24934;52.752;6.964;2023-12-20T03:50:22;51.27;;;17.20;;
39218;SDS011;24934;52.752;6.964;2023-12-20T03:52:48;50.23;;;17.47;;
39218;SDS011;24934;52.752;6.964;2023-12-20T03:55:13;44.77;;;17.10;;
39218;SDS011;24934;52.752;6.964;2023-12-20T03:57:40;50.27;;;17.87;;
39218;SDS011;24934;52.752;6.964;2023-12-20T04:00:06;48.67;;;18.17;;
39218;SDS011;24934;52.752;6.964;2023-12-20T04:02:36;46.03;;;18.20;;
39218;SDS011;24934;52.752;6.964;2023-12-20T04:05:02;46.83;;;18.97;;
39218;SDS011;24934;52.752;6.964;2023-12-20T04:07:28;54.17;;;18.83;;
39218;SDS011;24934;52.752;6.964;2023-12-20T04:09:54;50.10;;;19.20;;
39218;SDS011;24934;52.752;6.964;2023-12-20T04:12:22;53.47;;;18.90;;
39218;SDS011;24934;52.752;6.964;2023-12-20T04:14:48;45.27;;;19.03;;
39218;SDS011;24934;52.752;6.964;2023-12-20T04:17:14;55.47;;;19.90;;
39218;SDS011;24934;52.752;6.964;2023-12-20T04:19:41;47.43;;;18.97;;
39218;SDS011;24934;52.752;6.964;2023-12-20T04:22:07;54.10;;;19.70;;
39218;SDS011;24934;52.752;6.964;2023-12-20T04:24:32;51.57;;;19.37;;
39218;SDS011;24934;52.752;6.964;2023-12-20T04:26:58;53.67;;;19.17;;
39218;SDS011;24934;52.752;6.964;2023-12-20T04:29:24;48.83;;;19.20;;
39218;SDS011;24934;52.752;6.964;2023-12-20T04:31:49;47.10;;;19.33;;
39218;SDS011;24934;52.752;6.964;2023-12-20T04:34:18;49.27;;;19.83;;
39218;SDS011;24934;52.752;6.964;2023-12-20T04:36:43;56.23;;;19.87;;
39218;SDS011;24934;52.752;6.964;2023-12-20T04:39:09;51.97;;;18.87;;
39218;SDS011;24934;52.752;6.964;2023-12-20T04:41:40;56.13;;;19.13;;
39218;SDS011;24934;52.752;6.964;2023-12-20T04:44:06;51.77;;;19.43;;
39218;SDS011;24934;52.752;6.964;2023-12-20T04:46:31;50.23;;;18.63;;
39218;SDS011;24934;52.752;6.964;2023-12-20T04:48:57;51.43;;;19.07;;
39218;SDS011;24934;52.752;6.964;2023-12-20T04:51:23;51.80;;;18.63;;
39218;SDS011;24934;52.752;6.964;2023-12-20T04:53:48;66.87;;;19.30;;
39218;SDS011;24934;52.752;6.964;2023-12-20T04:56:14;60.27;;;19.60;;
39218;SDS011;24934;52.752;6.964;2023-12-20T04:58:40;45.40;;;19.10;;
39218;SDS011;24934;52.752;6.964;2023-12-20T05:01:06;50.90;;;17.97;;
39218;SDS011;24934;52.752;6.964;2023-12-20T05:03:33;46.73;;;17.43;;
39218;SDS011;24934;52.752;6.964;2023-12-20T05:05:59;54.27;;;18.07;;
39218;SDS011;24934;52.752;6.964;2023-12-20T05:08:24;47.70;;;18.07;;
39218;SDS011;24934;52.752;6.964;2023-12-20T05:10:53;55.33;;;18.67;;
39218;SDS011;24934;52.752;6.964;2023-12-20T05:13:22;64.00;;;18.77;;
39218;SDS011;24934;52.752;6.964;2023-12-20T05:15:47;58.07;;;17.67;;
39218;SDS011;24934;52.752;6.964;2023-12-20T05:18:13;53.17;;;18.40;;
39218;SDS011;24934;52.752;6.964;2023-12-20T05:20:39;54.10;;;18.63;;
39218;SDS011;24934;52.752;6.964;2023-12-20T05:23:05;50.73;;;18.40;;
39218;SDS011;24934;52.752;6.964;2023-12-20T05:25:31;55.40;;;19.63;;
39218;SDS011;24934;52.752;6.964;2023-12-20T05:27:57;56.90;;;19.10;;
39218;SDS011;24934;52.752;6.964;2023-12-20T05:30:22;62.27;;;19.03;;
39218;SDS011;24934;52.752;6.964;2023-12-20T05:32:48;55.43;;;18.73;;
39218;SDS011;24934;52.752;6.964;2023-12-20T05:35:14;53.83;;;17.80;;
39218;SDS011;24934;52.752;6.964;2023-12-20T05:37:40;51.70;;;17.97;;
39218;SDS011;24934;52.752;6.964;2023-12-20T05:40:06;55.73;;;18.00;;
39218;SDS011;24934;52.752;6.964;2023-12-20T05:42:35;47.23;;;17.93;;
39218;SDS011;24934;52.752;6.964;2023-12-20T05:45:01;53.10;;;18.00;;
39218;SDS011;24934;52.752;6.964;2023-12-20T05:47:27;58.33;;;17.37;;
39218;SDS011;24934;52.752;6.964;2023-12-20T05:49:53;45.93;;;16.57;;
39218;SDS011;24934;52.752;6.964;2023-12-20T05:52:18;53.80;;;17.17;;
39218;SDS011;24934;52.752;6.964;2023-12-20T05:54:44;46.87;;;17.53;;
39218;SDS011;24934;52.752;6.964;2023-12-20T05:57:10;51.20;;;17.73;;
39218;SDS011;24934;52.752;6.964;2023-12-20T05:59:35;46.80;;;17.13;;
39218;SDS011;24934;52.752;6.964;2023-12-20T06:02:02;49.77;;;16.57;;
39218;SDS011;24934;52.752;6.964;2023-12-20T06:04:29;48.13;;;16.47;;
39218;SDS011;24934;52.752;6.964;2023-12-20T06:06:55;51.27;;;15.90;;
39218;SDS011;24934;52.752;6.964;2023-12-20T06:09:21;61.10;;;18.33;;
39218;SDS011;24934;52.752;6.964;2023-12-20T06:11:46;50.70;;;16.93;;
39218;SDS011;24934;52.752;6.964;2023-12-20T06:14:12;44.77;;;16.73;;
39218;SDS011;24934;52.752;6.964;2023-12-20T06:16:38;52.63;;;17.40;;
39218;SDS011;24934;52.752;6.964;2023-12-20T06:19:03;51.13;;;17.70;;
39218;SDS011;24934;52.752;6.964;2023-12-20T06:21:29;50.40;;;17.47;;
39218;SDS011;24934;52.752;6.964;2023-12-20T06:23:58;45.53;;;17.47;;
39218;SDS011;24934;52.752;6.964;2023-12-20T06:26:24;46.33;;;16.50;;
39218;SDS011;24934;52.752;6.964;2023-12-20T06:28:50;58.10;;;17.00;;
39218;SDS011;24934;52.752;6.964;2023-12-20T06:31:16;46.67;;;17.90;;
39218;SDS011;24934;52.752;6.964;2023-12-20T06:33:42;47.67;;;16.67;;
39218;SDS011;24934;52.752;6.964;2023-12-20T06:36:10;42.20;;;17.03;;
39218;SDS011;24934;52.752;6.964;2023-12-20T06:38:37;40.00;;;17.20;;
39218;SDS011;24934;52.752;6.964;2023-12-20T06:41:03;54.50;;;17.63;;
39218;SDS011;24934;52.752;6.964;2023-12-20T06:43:29;51.73;;;17.20;;
39218;SDS011;24934;52.752;6.964;2023-12-20T06:45:56;54.50;;;17.57;;
39218;SDS011;24934;52.752;6.964;2023-12-20T06:48:22;46.37;;;17.60;;
39218;SDS011;24934;52.752;6.964;2023-12-20T06:50:48;44.47;;;16.57;;
39218;SDS011;24934;52.752;6.964;2023-12-20T06:53:13;42.27;;;17.57;;
39218;SDS011;24934;52.752;6.964;2023-12-20T06:55:39;45.73;;;17.60;;
39218;SDS011;24934;52.752;6.964;2023-12-20T06:58:04;48.67;;;18.23;;
39218;SDS011;24934;52.752;6.964;2023-12-20T07:00:33;45.97;;;17.80;;
39218;SDS011;24934;52.752;6.964;2023-12-20T07:02:59;43.67;;;18.23;;
39218;SDS011;24934;52.752;6.964;2023-12-20T07:05:25;47.50;;;18.57;;
39218;SDS011;24934;52.752;6.964;2023-12-20T07:07:51;48.80;;;19.30;;
39218;SDS011;24934;52.752;6.964;2023-12-20T07:10:17;52.00;;;19.43;;
39218;SDS011;24934;52.752;6.964;2023-12-20T07:12:42;50.60;;;19.77;;
39218;SDS011;24934;52.752;6.964;2023-12-20T07:15:09;45.13;;;19.77;;
39218;SDS011;24934;52.752;6.964;2023-12-20T07:17:34;50.20;;;20.20;;
39218;SDS011;24934;52.752;6.964;2023-12-20T07:20:00;49.47;;;20.50;;
39218;SDS011;24934;52.752;6.964;2023-12-20T07:22:32;46.83;;;20.63;;
39218;SDS011;24934;52.752;6.964;2023-12-20T07:24:59;45.60;;;19.30;;
39218;SDS011;24934;52.752;6.964;2023-12-20T07:27:24;42.40;;;19.33;;
39218;SDS011;24934;52.752;6.964;2023-12-20T07:29:50;47.80;;;20.30;;
39218;SDS011;24934;52.752;6.964;2023-12-20T07:32:16;49.30;;;20.70;;
39218;SDS011;24934;52.752;6.964;2023-12-20T07:34:42;53.27;;;20.83;;
39218;SDS011;24934;52.752;6.964;2023-12-20T07:37:07;45.43;;;20.17;;
39218;SDS011;24934;52.752;6.964;2023-12-20T07:39:35;42.60;;;20.70;;
39218;SDS011;24934;52.752;6.964;2023-12-20T07:42:01;43.90;;;20.87;;
39218;SDS011;24934;52.752;6.964;2023-12-20T07:44:26;52.87;;;20.13;;
39218;SDS011;24934;52.752;6.964;2023-12-20T07:46:52;43.67;;;20.37;;
39218;SDS011;24934;52.752;6.964;2023-12-20T07:49:18;46.93;;;20.47;;
39218;SDS011;24934;52.752;6.964;2023-12-20T07:51:44;44.27;;;20.67;;
39218;SDS011;24934;52.752;6.964;2023-12-20T07:54:13;42.63;;;20.40;;
39218;SDS011;24934;52.752;6.964;2023-12-20T07:56:38;41.93;;;20.57;;
39218;SDS011;24934;52.752;6.964;2023-12-20T07:59:05;40.67;;;20.03;;
39218;SDS011;24934;52.752;6.964;2023-12-20T08:01:30;46.10;;;20.43;;
39218;SDS011;24934;52.752;6.964;2023-12-20T08:03:56;45.90;;;21.60;;
39218;SDS011;24934;52.752;6.964;2023-12-20T08:06:22;56.37;;;21.50;;
39218;SDS011;24934;52.752;6.964;2023-12-20T08:08:47;37.63;;;19.33;;
39218;SDS011;24934;52.752;6.964;2023-12-20T08:11:13;42.17;;;18.50;;
39218;SDS011;24934;52.752;6.964;2023-12-20T08:13:39;41.83;;;19.00;;
39218;SDS011;24934;52.752;6.964;2023-12-20T08:16:04;45.63;;;19.13;;
39218;SDS011;24934;52.752;6.964;2023-12-20T08:18:30;49.57;;;20.57;;
39218;SDS011;24934;52.752;6.964;2023-12-20T08:20:56;45.47;;;17.97;;
39218;SDS011;24934;52.752;6.964;2023-12-20T08:23:22;42.70;;;18.37;;
39218;SDS011;24934;52.752;6.964;2023-12-20T08:25:47;41.70;;;18.13;;
39218;SDS011;24934;52.752;6.964;2023-12-20T08:28:13;43.60;;;17.67;;
39218;SDS011;24934;52.752;6.964;2023-12-20T08:30:39;36.53;;;17.47;;
39218;SDS011;24934;52.752;6.964;2023-12-20T08:33:05;48.97;;;18.00;;
39218;SDS011;24934;52.752;6.964;2023-12-20T08:35:36;40.87;;;17.53;;
39218;SDS011;24934;52.752;6.964;2023-12-20T08:38:01;40.23;;;16.67;;
39218;SDS011;24934;52.752;6.964;2023-12-20T08:40:29;42.57;;;17.20;;
39218;SDS011;24934;52.752;6.964;2023-12-20T08:42:56;56.57;;;18.10;;
39218;SDS011;24934;52.752;6.964;2023-12-20T08:45:23;47.80;;;17.07;;
39218;SDS011;24934;52.752;6.964;2023-12-20T08:47:49;37.97;;;16.67;;
39218;SDS011;24934;52.752;6.964;2023-12-20T08:50:15;43.53;;;17.13;;
39218;SDS011;24934;52.752;6.964;2023-12-20T08:52:41;40.17;;;16.57;;
39218;SDS011;24934;52.752;6.964;2023-12-20T08:55:07;54.10;;;17.10;;
39218;SDS011;24934;52.752;6.964;2023-12-20T08:57:33;37.47;;;16.60;;
39218;SDS011;24934;52.752;6.964;2023-12-20T08:59:58;52.33;;;17.37;;
39218;SDS011;24934;52.752;6.964;2023-12-20T09:02:24;48.43;;;17.30;;
39218;SDS011;24934;52.752;6.964;2023-12-20T09:04:50;46.00;;;17.30;;
39218;SDS011;24934;52.752;6.964;2023-12-20T09:07:22;43.83;;;16.70;;
39218;SDS011;24934;52.752;6.964;2023-12-20T09:09:48;42.00;;;17.10;;
39218;SDS011;24934;52.752;6.964;2023-12-20T09:12:13;47.83;;;17.27;;
39218;SDS011;24934;52.752;6.964;2023-12-20T09:14:39;41.40;;;16.93;;
39218;SDS011;24934;52.752;6.964;2023-12-20T09:17:07;35.60;;;17.83;;
39218;SDS011;24934;52.752;6.964;2023-12-20T09:19:33;40.17;;;16.43;;
39218;SDS011;24934;52.752;6.964;2023-12-20T09:21:59;42.00;;;16.73;;
39218;SDS011;24934;52.752;6.964;2023-12-20T09:24:25;45.77;;;17.90;;
39218;SDS011;24934;52.752;6.964;2023-12-20T09:26:51;44.40;;;17.90;;
39218;SDS011;24934;52.752;6.964;2023-12-20T09:29:17;40.73;;;18.63;;
39218;SDS011;24934;52.752;6.964;2023-12-20T09:31:43;42.20;;;17.90;;
39218;SDS011;24934;52.752;6.964;2023-12-20T09:34:11;40.47;;;18.10;;
39218;SDS011;24934;52.752;6.964;2023-12-20T09:36:40;46.67;;;19.07;;
39218;SDS011;24934;52.752;6.964;2023-12-20T09:39:11;38.77;;;17.40;;
39218;SDS011;24934;52.752;6.964;2023-12-20T09:41:38;37.17;;;17.67;;
39218;SDS011;24934;52.752;6.964;2023-12-20T09:44:12;40.67;;;17.77;;
39218;SDS011;24934;52.752;6.964;2023-12-20T09:46:44;37.87;;;18.67;;
39218;SDS011;24934;52.752;6.964;2023-12-20T09:49:12;42.27;;;18.83;;
39218;SDS011;24934;52.752;6.964;2023-12-20T09:51:39;43.00;;;18.83;;
39218;SDS011;24934;52.752;6.964;2023-12-20T09:54:05;42.20;;;18.90;;
39218;SDS011;24934;52.752;6.964;2023-12-20T09:56:31;44.80;;;19.43;;
39218;SDS011;24934;52.752;6.964;2023-12-20T09:58:57;42.23;;;19.27;;
39218;SDS011;24934;52.752;6.964;2023-12-20T10:01:23;37.17;;;19.13;;
39218;SDS011;24934;52.752;6.964;2023-12-20T10:03:50;38.17;;;19.70;;
39218;SDS011;24934;52.752;6.964;2023-12-20T10:06:19;41.73;;;19.87;;
39218;SDS011;24934;52.752;6.964;2023-12-20T10:08:44;35.10;;;19.40;;
39218;SDS011;24934;52.752;6.964;2023-12-20T10:11:11;37.23;;;19.33;;
39218;SDS011;24934;52.752;6.964;2023-12-20T10:13:43;28.93;;;18.23;;
39218;SDS011;24934;52.752;6.964;2023-12-20T10:16:09;17.00;;;15.30;;
39218;SDS011;24934;52.752;6.964;2023-12-20T10:18:34;21.67;;;14.83;;
39218;SDS011;24934;52.752;6.964;2023-12-20T10:21:01;17.60;;;13.87;;
39218;SDS011;24934;52.752;6.964;2023-12-20T10:23:26;19.93;;;13.27;;
39218;SDS011;24934;52.752;6.964;2023-12-20T10:25:55;18.27;;;13.47;;
39218;SDS011;24934;52.752;6.964;2023-12-20T10:28:25;20.73;;;13.33;;
39218;SDS011;24934;52.752;6.964;2023-12-20T10:30:59;15.97;;;12.70;;
39218;SDS011;24934;52.752;6.964;2023-12-20T10:33:25;21.43;;;13.53;;
39218;SDS011;24934;52.752;6.964;2023-12-20T10:35:52;21.70;;;13.93;;
39218;SDS011;24934;52.752;6.964;2023-12-20T10:38:18;19.97;;;13.03;;
39218;SDS011;24934;52.752;6.964;2023-12-20T10:40:47;13.50;;;12.10;;
39218;SDS011;24934;52.752;6.964;2023-12-20T10:43:17;15.37;;;13.40;;
39218;SDS011;24934;52.752;6.964;2023-12-20T10:45:51;18.97;;;12.40;;
39218;SDS011;24934;52.752;6.964;2023-12-20T10:48:17;20.20;;;12.27;;
39218;SDS011;24934;52.752;6.964;2023-12-20T10:50:43;18.13;;;12.60;;
39218;SDS011;24934;52.752;6.964;2023-12-20T10:53:10;17.43;;;12.63;;
39218;SDS011;24934;52.752;6.964;2023-12-20T10:55:39;15.13;;;12.80;;
39218;SDS011;24934;52.752;6.964;2023-12-20T10:58:07;16.60;;;13.07;;
39218;SDS011;24934;52.752;6.964;2023-12-20T11:00:35;17.87;;;12.90;;
39218;SDS011;24934;52.752;6.964;2023-12-20T11:03:05;17.07;;;12.70;;
39218;SDS011;24934;52.752;6.964;2023-12-20T11:05:36;17.53;;;12.30;;
39218;SDS011;24934;52.752;6.964;2023-12-20T11:08:20;17.83;;;12.73;;
39218;SDS011;24934;52.752;6.964;2023-12-20T11:11:06;14.80;;;12.20;;
39218;SDS011;24934;52.752;6.964;2023-12-20T11:13:43;18.27;;;12.30;;
39218;SDS011;24934;52.752;6.964;2023-12-20T11:16:18;16.40;;;11.90;;
39218;SDS011;24934;52.752;6.964;2023-12-20T11:18:44;19.30;;;12.00;;
39218;SDS011;24934;52.752;6.964;2023-12-20T11:21:12;20.50;;;12.03;;
39218;SDS011;24934;52.752;6.964;2023-12-20T11:23:39;17.37;;;12.00;;
39218;SDS011;24934;52.752;6.964;2023-12-20T11:26:07;16.70;;;11.93;;
39218;SDS011;24934;52.752;6.964;2023-12-20T11:28:33;19.27;;;12.70;;
39218;SDS011;24934;52.752;6.964;2023-12-20T11:31:00;24.77;;;12.40;;
39218;SDS011;24934;52.752;6.964;2023-12-20T11:33:30;22.73;;;12.60;;
39218;SDS011;24934;52.752;6.964;2023-12-20T11:36:00;18.83;;;11.70;;
39218;SDS011;24934;52.752;6.964;2023-12-20T11:38:27;17.47;;;12.37;;
39218;SDS011;24934;52.752;6.964;2023-12-20T11:41:01;23.63;;;12.60;;
39218;SDS011;24934;52.752;6.964;2023-12-20T11:43:35;18.50;;;12.77;;
39218;SDS011;24934;52.752;6.964;2023-12-20T11:46:05;17.93;;;13.20;;
39218;SDS011;24934;52.752;6.964;2023-12-20T11:48:31;19.07;;;12.63;;
39218;SDS011;24934;52.752;6.964;2023-12-20T11:51:00;16.63;;;12.83;;
39218;SDS011;24934;52.752;6.964;2023-12-20T11:53:26;19.27;;;13.23;;
39218;SDS011;24934;52.752;6.964;2023-12-20T11:55:52;18.73;;;13.10;;
39218;SDS011;24934;52.752;6.964;2023-12-20T11:58:19;18.90;;;13.63;;
39218;SDS011;24934;52.752;6.964;2023-12-20T12:00:45;20.40;;;13.40;;
39218;SDS011;24934;52.752;6.964;2023-12-20T12:03:13;19.80;;;13.20;;
39218;SDS011;24934;52.752;6.964;2023-12-20T12:05:40;19.27;;;12.90;;
39218;SDS011;24934;52.752;6.964;2023-12-20T12:08:06;20.90;;;13.30;;
39218;SDS011;24934;52.752;6.964;2023-12-20T12:10:32;17.63;;;13.40;;
39218;SDS011;24934;52.752;6.964;2023-12-20T12:13:01;18.90;;;14.00;;
39218;SDS011;24934;52.752;6.964;2023-12-20T12:15:26;18.33;;;14.20;;
39218;SDS011;24934;52.752;6.964;2023-12-20T12:17:53;20.80;;;14.10;;
39218;SDS011;24934;52.752;6.964;2023-12-20T12:20:20;19.30;;;13.70;;
39218;SDS011;24934;52.752;6.964;2023-12-20T12:22:45;24.73;;;14.20;;
39218;SDS011;24934;52.752;6.964;2023-12-20T12:25:15;24.70;;;14.20;;
39218;SDS011;24934;52.752;6.964;2023-12-20T12:27:41;19.97;;;14.03;;
39218;SDS011;24934;52.752;6.964;2023-12-20T12:30:08;18.40;;;13.53;;
39218;SDS011;24934;52.752;6.964;2023-12-20T12:32:34;18.13;;;13.60;;
39218;SDS011;24934;52.752;6.964;2023-12-20T12:35:02;22.90;;;14.07;;
39218;SDS011;24934;52.752;6.964;2023-12-20T12:37:34;23.90;;;13.70;;
39218;SDS011;24934;52.752;6.964;2023-12-20T12:40:07;19.47;;;13.63;;
39218;SDS011;24934;52.752;6.964;2023-12-20T12:42:36;25.87;;;14.40;;
39218;SDS011;24934;52.752;6.964;2023-12-20T12:45:05;19.40;;;13.37;;
39218;SDS011;24934;52.752;6.964;2023-12-20T12:47:31;22.70;;;13.80;;
39218;SDS011;24934;52.752;6.964;2023-12-20T12:49:58;26.20;;;13.10;;
39218;SDS011;24934;52.752;6.964;2023-12-20T12:52:23;24.37;;;13.70;;
39218;SDS011;24934;52.752;6.964;2023-12-20T12:54:49;19.77;;;13.57;;
39218;SDS011;24934;52.752;6.964;2023-12-20T12:57:17;18.83;;;13.57;;
39218;SDS011;24934;52.752;6.964;2023-12-20T12:59:44;21.10;;;12.83;;
39218;SDS011;24934;52.752;6.964;2023-12-20T13:02:13;18.50;;;12.73;;
39218;SDS011;24934;52.752;6.964;2023-12-20T13:04:41;21.77;;;13.10;;
39218;SDS011;24934;52.752;6.964;2023-12-20T13:07:07;17.20;;;12.70;;
39218;SDS011;24934;52.752;6.964;2023-12-20T13:09:36;25.93;;;13.03;;
39218;SDS011;24934;52.752;6.964;2023-12-20T13:12:02;22.17;;;13.07;;
39218;SDS011;24934;52.752;6.964;2023-12-20T13:14:29;22.63;;;13.20;;
39218;SDS011;24934;52.752;6.964;2023-12-20T13:16:57;20.80;;;14.20;;
39218;SDS011;24934;52.752;6.964;2023-12-20T13:19:23;23.43;;;14.67;;
39218;SDS011;24934;52.752;6.964;2023-12-20T13:21:49;24.20;;;15.67;;
39218;SDS011;24934;52.752;6.964;2023-12-20T13:24:14;19.83;;;15.97;;
39218;SDS011;24934;52.752;6.964;2023-12-20T13:26:42;26.93;;;15.83;;
39218;SDS011;24934;52.752;6.964;2023-12-20T13:29:08;24.43;;;15.70;;
39218;SDS011;24934;52.752;6.964;2023-12-20T13:31:34;19.73;;;15.20;;
39218;SDS011;24934;52.752;6.964;2023-12-20T13:34:01;21.07;;;15.27;;
39218;SDS011;24934;52.752;6.964;2023-12-20T13:36:30;18.67;;;14.40;;
39218;SDS011;24934;52.752;6.964;2023-12-20T13:38:55;18.07;;;15.00;;
39218;SDS011;24934;52.752;6.964;2023-12-20T13:41:21;26.10;;;14.60;;
39218;SDS011;24934;52.752;6.964;2023-12-20T13:43:47;23.40;;;14.30;;
39218;SDS011;24934;52.752;6.964;2023-12-20T13:46:12;18.80;;;14.50;;
39218;SDS011;24934;52.752;6.964;2023-12-20T13:48:39;16.30;;;14.47;;
39218;SDS011;24934;52.752;6.964;2023-12-20T13:51:04;24.77;;;16.60;;
39218;SDS011;24934;52.752;6.964;2023-12-20T13:53:31;23.03;;;16.10;;
39218;SDS011;24934;52.752;6.964;2023-12-20T13:55:56;25.97;;;15.33;;
39218;SDS011;24934;52.752;6.964;2023-12-20T13:58:22;22.87;;;14.83;;
39218;SDS011;24934;52.752;6.964;2023-12-20T14:00:48;25.13;;;15.20;;
39218;SDS011;24934;52.752;6.964;2023-12-20T14:03:17;23.87;;;15.53;;
39218;SDS011;24934;52.752;6.964;2023-12-20T14:05:43;18.70;;;14.73;;
39218;SDS011;24934;52.752;6.964;2023-12-20T14:08:09;17.33;;;14.07;;
39218;SDS011;24934;52.752;6.964;2023-12-20T14:10:35;23.73;;;14.60;;
39218;SDS011;24934;52.752;6.964;2023-12-20T14:13:00;23.30;;;14.20;;
39218;SDS011;24934;52.752;6.964;2023-12-20T14:15:26;22.73;;;14.00;;
39218;SDS011;24934;52.752;6.964;2023-12-20T14:17:52;23.17;;;14.17;;